Time;durP1;ratioP1;P1;durP2;ratioP2;P2;SDS_P1;SDS_P2;PMS_P1;PMS_P2;Temp;Humidity;BMP_temperature;BMP_pressure;BME280_temperature;BME280_humidity;BME280_pressure;Samples;Min_cycle;Max_cycle;Signal;HPM_P1;HPM_P2
2023/03/13 00:00:18;;;;;;;3.90;2.70;;;14.70;52.00;;;;;;5052460;28;20488;-44
2023/03/13 00:02:49;;;;;;;8.57;3.47;;;14.70;51.90;;;;;;5051932;28;20578;-45
2023/03/13 00:05:14;;;;;;;8.73;3.60;;;14.70;51.80;;;;;;5053213;28;20810;-43
2023/03/13 00:07:40;;;;;;;5.80;2.97;;;14.70;51.80;;;;;;5049081;28;20442;-44
2023/03/13 00:10:06;;;;;;;9.07;3.10;;;14.70;51.90;;;;;;5049156;28;20558;-45
2023/03/13 00:12:31;;;;;;;6.30;3.27;;;14.70;51.90;;;;;;5047539;28;20196;-44
2023/03/13 00:14:58;;;;;;;5.57;3.13;;;14.70;51.90;;;;;;5048302;28;20451;-44
2023/03/13 00:17:24;;;;;;;10.80;3.80;;;14.70;51.80;;;;;;5044566;28;20714;-44
2023/03/13 00:19:50;;;;;;;11.30;3.70;;;14.70;51.80;;;;;;5051197;28;20443;-43
2023/03/13 00:22:16;;;;;;;6.40;3.07;;;14.60;51.90;;;;;;5051598;28;20188;-45
2023/03/13 00:24:41;;;;;;;8.57;3.90;;;14.60;52.00;;;;;;5039197;28;20475;-45
2023/03/13 00:27:07;;;;;;;11.00;3.23;;;14.60;52.20;;;;;;5046157;28;20664;-48
2023/03/13 00:29:33;;;;;;;6.83;2.60;;;14.50;52.20;;;;;;5047037;28;20247;-45
2023/03/13 00:31:59;;;;;;;11.70;3.43;;;14.50;52.30;;;;;;5051505;28;20193;-44
2023/03/13 00:34:26;;;;;;;5.77;3.00;;;14.40;52.50;;;;;;5040877;28;20519;-43
2023/03/13 00:36:53;;;;;;;4.63;2.60;;;14.40;52.60;;;;;;5039312;28;21001;-44
2023/03/13 00:39:19;;;;;;;8.20;3.30;;;14.40;52.70;;;;;;5039823;28;21288;-43
2023/03/13 00:41:44;;;;;;;5.43;2.40;;;14.20;52.90;;;;;;5050311;28;20449;-44
2023/03/13 00:44:10;;;;;;;6.43;2.83;;;14.00;53.50;;;;;;5045031;28;20196;-44
2023/03/13 00:46:35;;;;;;;11.13;3.27;;;13.90;53.90;;;;;;5051554;28;20285;-44
2023/03/13 00:49:01;;;;;;;6.80;3.10;;;13.80;54.20;;;;;;5042513;28;20197;-44
2023/03/13 00:51:28;;;;;;;6.57;2.60;;;13.80;54.60;;;;;;5028493;28;20544;-44
2023/03/13 00:53:59;;;;;;;11.63;3.10;;;13.70;54.50;;;;;;5044505;28;20454;-44
2023/03/13 00:56:25;;;;;;;7.40;2.37;;;13.70;54.60;;;;;;5051982;28;20474;-44
2023/03/13 00:58:51;;;;;;;8.40;2.80;;;13.60;54.90;;;;;;5050791;28;20782;-44
2023/03/13 01:01:20;;;;;;;5.80;3.03;;;13.70;54.70;;;;;;5051396;28;20423;-44
2023/03/13 01:03:49;;;;;;;6.30;3.13;;;13.60;54.80;;;;;;5051386;28;20193;-44
2023/03/13 01:06:17;;;;;;;7.60;3.03;;;13.50;55.20;;;;;;5048951;28;20430;-43
2023/03/13 01:08:44;;;;;;;5.27;3.10;;;13.70;55.10;;;;;;5046149;28;20443;-43
2023/03/13 01:11:19;;;;;;;6.67;2.77;;;13.70;55.00;;;;;;5050164;28;20447;-47
2023/03/13 01:13:46;;;;;;;7.90;3.13;;;13.70;55.10;;;;;;5047964;28;20533;-44
2023/03/13 01:16:17;;;;;;;7.20;2.80;;;13.60;55.20;;;;;;5046501;28;20570;-44
2023/03/13 01:18:45;;;;;;;5.90;2.60;;;13.60;55.30;;;;;;5037284;28;20524;-44
2023/03/13 01:21:12;;;;;;;10.80;3.00;;;13.70;55.30;;;;;;5049023;28;20454;-45
2023/03/13 01:23:38;;;;;;;5.07;2.30;;;13.50;55.70;;;;;;5049240;28;20431;-43
2023/03/13 01:26:05;;;;;;;6.00;3.00;;;13.50;55.40;;;;;;5043111;28;20873;-43
2023/03/13 01:28:31;;;;;;;6.60;2.90;;;13.40;55.50;;;;;;5044348;28;20193;-44
2023/03/13 01:30:57;;;;;;;5.13;2.40;;;13.50;55.70;;;;;;5052132;28;20944;-44
2023/03/13 01:33:23;;;;;;;6.70;2.60;;;13.60;55.40;;;;;;5041278;28;20463;-43
2023/03/13 01:35:49;;;;;;;10.53;3.30;;;13.70;55.20;;;;;;5041729;28;20485;-44
2023/03/13 01:38:14;;;;;;;8.90;2.37;;;13.80;54.90;;;;;;5035774;28;20247;-44
2023/03/13 01:40:46;;;;;;;4.33;2.00;;;13.70;54.70;;;;;;5049596;28;20199;-43
2023/03/13 01:43:25;;;;;;;8.10;2.43;;;13.70;55.10;;;;;;5036587;28;20272;-44
2023/03/13 01:46:23;;;;;;;5.50;3.20;;;13.60;55.10;;;;;;5033738;28;20513;-44
2023/03/13 01:48:52;;;;;;;7.73;2.53;;;13.60;55.30;;;;;;5022617;28;20462;-43
2023/03/13 01:51:37;;;;;;;5.60;2.43;;;13.50;55.60;;;;;;5033365;28;20482;-47
2023/03/13 01:54:08;;;;;;;8.83;2.70;;;13.50;55.20;;;;;;5042636;28;20481;-43
2023/03/13 01:56:46;;;;;;;7.13;2.30;;;13.50;55.30;;;;;;5044726;28;20494;-43
2023/03/13 01:59:16;;;;;;;5.93;2.30;;;13.60;55.10;;;;;;5043385;28;20462;-43
2023/03/13 02:01:44;;;;;;;7.23;2.40;;;13.50;55.20;;;;;;5046890;28;20510;-43
2023/03/13 02:04:11;;;;;;;8.13;2.53;;;13.50;55.40;;;;;;5059717;28;20430;-43
2023/03/13 02:06:40;;;;;;;7.60;2.73;;;13.50;55.40;;;;;;5050300;28;20423;-45
2023/03/13 02:09:11;;;;;;;6.50;2.30;;;13.50;55.10;;;;;;5049563;28;20514;-44
2023/03/13 02:11:49;;;;;;;6.77;2.10;;;13.60;54.80;;;;;;5050314;28;20419;-45
2023/03/13 02:14:17;;;;;;;5.63;1.90;;;13.60;54.90;;;;;;5047065;28;20855;-44
2023/03/13 02:16:47;;;;;;;3.27;2.17;;;13.50;54.80;;;;;;5048016;28;20478;-44
2023/03/13 02:19:22;;;;;;;3.90;2.13;;;13.50;55.00;;;;;;5049290;28;20455;-44
2023/03/13 02:21:56;;;;;;;4.33;1.97;;;13.50;55.10;;;;;;5049369;28;20860;-44
2023/03/13 02:24:45;;;;;;;5.43;2.33;;;13.70;54.90;;;;;;5045154;28;20511;-44
2023/03/13 02:27:11;;;;;;;5.67;1.93;;;13.50;54.80;;;;;;5046391;28;20450;-45
2023/03/13 02:29:36;;;;;;;6.30;2.33;;;13.50;54.90;;;;;;5037667;28;20946;-44
2023/03/13 02:32:03;;;;;;;5.43;2.33;;;13.50;55.00;;;;;;5048110;28;20528;-44
2023/03/13 02:34:32;;;;;;;4.97;2.10;;;13.70;55.00;;;;;;5043494;28;20189;-44
2023/03/13 02:36:59;;;;;;;5.30;1.50;;;13.80;54.50;;;;;;5045074;28;20497;-43
2023/03/13 02:39:27;;;;;;;3.40;1.53;;;13.70;54.60;;;;;;5043802;28;20977;-44
2023/03/13 02:41:53;;;;;;;6.13;2.03;;;13.60;54.60;;;;;;5045372;28;20526;-43
2023/03/13 02:44:19;;;;;;;4.43;1.80;;;13.50;55.20;;;;;;5048246;28;20431;-43
2023/03/13 02:46:47;;;;;;;5.97;2.10;;;13.80;54.70;;;;;;5041940;28;20445;-45
2023/03/13 02:49:25;;;;;;;4.23;2.07;;;14.00;54.50;;;;;;5047549;28;20196;-46
2023/03/13 02:51:53;;;;;;;3.20;1.70;;;14.00;54.20;;;;;;5037198;28;20430;-44
2023/03/13 02:54:23;;;;;;;8.80;2.00;;;14.20;54.20;;;;;;5048481;28;20478;-43
2023/03/13 02:56:54;;;;;;;3.50;1.37;;;14.40;53.80;;;;;;5051785;28;20511;-44
2023/03/13 02:59:20;;;;;;;4.53;2.37;;;14.40;53.40;;;;;;5041100;28;20451;-44
2023/03/13 03:01:45;;;;;;;4.90;2.03;;;14.40;53.60;;;;;;5053810;28;20442;-46
2023/03/13 03:04:11;;;;;;;4.80;1.40;;;14.10;54.10;;;;;;5053725;28;20204;-43
2023/03/13 03:06:37;;;;;;;4.87;1.83;;;14.00;54.50;;;;;;5046096;28;20223;-44
2023/03/13 03:09:03;;;;;;;4.00;1.90;;;14.00;54.70;;;;;;5060094;28;20192;-45
2023/03/13 03:11:29;;;;;;;3.87;1.60;;;13.90;54.90;;;;;;5060841;28;20188;-44
2023/03/13 03:13:54;;;;;;;6.03;1.93;;;14.10;54.80;;;;;;5059914;28;20505;-44
2023/03/13 03:16:20;;;;;;;5.07;2.23;;;14.20;54.70;;;;;;5045761;28;20224;-45
2023/03/13 03:18:46;;;;;;;5.47;1.80;;;14.30;54.40;;;;;;5051788;28;20228;-43
2023/03/13 03:21:12;;;;;;;4.00;1.60;;;14.40;54.20;;;;;;5049779;28;20197;-44
2023/03/13 03:23:38;;;;;;;3.20;1.53;;;14.60;53.90;;;;;;5051472;28;20451;-44
2023/03/13 03:26:05;;;;;;;7.33;1.90;;;14.80;53.70;;;;;;5046116;28;20450;-43
2023/03/13 03:28:31;;;;;;;3.83;1.57;;;14.80;53.60;;;;;;5047082;28;20203;-43
2023/03/13 03:30:56;;;;;;;5.47;1.67;;;14.80;54.30;;;;;;5048648;28;20442;-44
2023/03/13 03:33:23;;;;;;;3.70;1.10;;;14.80;54.50;;;;;;5051885;28;20194;-44
2023/03/13 03:35:49;;;;;;;6.07;1.57;;;14.90;55.10;;;;;;5050480;28;20220;-44
2023/03/13 03:38:16;;;;;;;4.27;1.80;;;14.90;55.60;;;;;;5046827;28;20446;-44
2023/03/13 03:40:42;;;;;;;3.50;1.50;;;14.90;55.70;;;;;;5039244;28;21068;-44
2023/03/13 03:43:07;;;;;;;5.43;1.70;;;14.90;55.80;;;;;;5046443;28;20496;-45
2023/03/13 03:45:33;;;;;;;3.53;1.57;;;15.00;56.20;;;;;;5058771;28;20532;-44
2023/03/13 03:47:58;;;;;;;2.13;1.60;;;15.00;56.60;;;;;;5059425;28;20195;-44
2023/03/13 03:50:25;;;;;;;3.00;1.30;;;15.00;56.50;;;;;;5051599;28;20640;-45
2023/03/13 03:52:51;;;;;;;2.10;1.30;;;15.10;56.40;;;;;;5038224;28;20280;-46
2023/03/13 03:55:17;;;;;;;2.53;1.20;;;15.10;56.50;;;;;;5045052;28;20602;-46
2023/03/13 03:57:43;;;;;;;3.10;1.20;;;15.10;56.30;;;;;;5046733;28;20542;-43
2023/03/13 04:00:11;;;;;;;2.70;1.20;;;15.20;56.50;;;;;;5047479;28;20500;-45
2023/03/13 04:02:36;;;;;;;1.80;1.00;;;15.00;56.70;;;;;;5042409;28;20204;-43
2023/03/13 04:05:03;;;;;;;3.43;1.20;;;15.00;56.90;;;;;;5049542;28;20443;-45
2023/03/13 04:07:28;;;;;;;1.67;1.03;;;15.10;56.80;;;;;;5047613;28;20189;-45
2023/03/13 04:09:54;;;;;;;4.20;1.20;;;15.00;56.70;;;;;;5046360;28;20461;-44
2023/03/13 04:12:20;;;;;;;2.50;1.20;;;14.80;57.70;;;;;;5040318;28;20193;-46
2023/03/13 04:14:45;;;;;;;1.60;1.10;;;14.70;57.50;;;;;;5045560;28;20186;-45
2023/03/13 04:17:11;;;;;;;2.97;1.30;;;14.70;58.10;;;;;;5036983;28;20237;-46
2023/03/13 04:19:37;;;;;;;3.30;1.60;;;14.70;58.00;;;;;;5048934;28;20667;-47
2023/03/13 04:22:02;;;;;;;4.63;2.53;;;14.80;57.90;;;;;;5047939;28;20266;-44
2023/03/13 04:24:28;;;;;;;2.60;1.20;;;14.80;57.90;;;;;;5040343;28;20203;-44
2023/03/13 04:26:53;;;;;;;2.20;1.50;;;14.70;58.70;;;;;;5044701;28;20557;-45
2023/03/13 04:29:20;;;;;;;2.30;1.27;;;14.70;58.80;;;;;;5047453;28;20196;-46
2023/03/13 04:31:45;;;;;;;4.33;1.30;;;14.80;58.70;;;;;;5039745;28;20200;-44
2023/03/13 04:34:11;;;;;;;1.47;1.20;;;14.80;58.90;;;;;;5048165;28;20447;-44
2023/03/13 04:36:36;;;;;;;2.40;1.37;;;14.60;59.20;;;;;;5038071;28;20267;-45
2023/03/13 04:39:02;;;;;;;3.13;1.10;;;14.40;60.50;;;;;;5047296;28;20565;-46
2023/03/13 04:41:27;;;;;;;2.93;1.27;;;14.10;62.00;;;;;;5038569;28;20193;-45
2023/03/13 04:43:53;;;;;;;5.20;1.00;;;14.10;63.50;;;;;;5047703;28;20267;-45
2023/03/13 04:46:19;;;;;;;1.33;1.13;;;14.20;63.60;;;;;;5044648;28;20204;-43
2023/03/13 04:48:45;;;;;;;1.20;0.93;;;14.20;64.00;;;;;;5046450;28;20203;-43
2023/03/13 04:51:11;;;;;;;1.30;1.20;;;14.20;64.30;;;;;;5042283;28;20531;-44
2023/03/13 04:53:37;;;;;;;1.27;1.17;;;14.20;64.60;;;;;;5050292;28;20453;-45
2023/03/13 04:56:03;;;;;;;1.30;1.20;;;14.40;64.60;;;;;;5046436;28;20236;-44
2023/03/13 04:58:28;;;;;;;1.27;0.83;;;14.40;64.60;;;;;;5047757;28;20200;-45
2023/03/13 05:00:55;;;;;;;0.80;0.80;;;14.40;65.00;;;;;;5044647;28;20801;-47
2023/03/13 05:03:21;;;;;;;1.20;1.00;;;14.30;65.30;;;;;;5050614;28;20188;-45
2023/03/13 05:05:47;;;;;;;0.97;0.90;;;14.40;65.40;;;;;;5050602;28;20454;-46
2023/03/13 05:08:12;;;;;;;2.90;1.00;;;14.40;65.10;;;;;;5048889;28;20444;-44
2023/03/13 05:10:40;;;;;;;1.70;1.00;;;14.60;66.10;;;;;;5040477;28;20201;-44
2023/03/13 05:13:05;;;;;;;3.63;1.10;;;14.60;65.00;;;;;;5047513;28;20194;-48
2023/03/13 05:15:31;;;;;;;1.33;0.93;;;14.70;65.00;;;;;;5046710;28;20445;-44
2023/03/13 05:17:57;;;;;;;2.20;1.03;;;14.60;64.90;;;;;;5039808;28;20707;-45
2023/03/13 05:20:22;;;;;;;2.50;1.00;;;14.60;65.20;;;;;;5035299;28;20262;-44
2023/03/13 05:22:48;;;;;;;0.97;0.70;;;14.70;65.40;;;;;;5041991;28;20893;-43
2023/03/13 05:25:14;;;;;;;2.13;1.13;;;14.90;64.60;;;;;;5035768;28;20181;-44
2023/03/13 05:27:40;;;;;;;1.20;1.00;;;14.90;64.10;;;;;;5033884;28;20439;-46
2023/03/13 05:30:06;;;;;;;1.10;1.00;;;14.90;63.90;;;;;;5033631;28;20797;-44
2023/03/13 05:32:32;;;;;;;1.60;1.20;;;14.90;64.00;;;;;;5036010;28;20197;-45
2023/03/13 05:34:57;;;;;;;1.57;0.73;;;14.80;64.00;;;;;;5047951;28;20442;-48
2023/03/13 05:37:23;;;;;;;1.00;0.90;;;15.00;63.60;;;;;;5041827;28;20228;-44
2023/03/13 05:39:48;;;;;;;3.17;0.90;;;14.90;63.30;;;;;;5034118;28;20197;-44
2023/03/13 05:42:14;;;;;;;1.67;0.90;;;14.90;63.40;;;;;;5033631;28;20192;-44
2023/03/13 05:44:39;;;;;;;1.10;0.67;;;14.90;64.00;;;;;;5044176;28;20889;-46
2023/03/13 05:47:05;;;;;;;0.80;0.70;;;14.80;64.00;;;;;;5046988;28;20200;-47
2023/03/13 05:49:31;;;;;;;1.53;0.90;;;15.00;63.80;;;;;;5048155;28;20224;-44
2023/03/13 05:51:56;;;;;;;5.67;0.83;;;14.90;63.90;;;;;;5038514;28;20248;-44
2023/03/13 05:54:22;;;;;;;0.80;0.70;;;14.90;64.10;;;;;;5045907;28;20240;-44
2023/03/13 05:56:49;;;;;;;1.10;1.00;;;14.80;64.80;;;;;;5043000;28;20220;-46
2023/03/13 05:59:15;;;;;;;1.73;0.90;;;14.80;65.40;;;;;;5047853;28;20254;-44
2023/03/13 06:01:41;;;;;;;1.27;0.97;;;15.00;65.10;;;;;;5041243;28;20451;-44
2023/03/13 06:04:06;;;;;;;0.73;0.73;;;15.10;64.50;;;;;;5043193;28;20441;-49
2023/03/13 06:06:32;;;;;;;2.27;1.10;;;15.10;64.00;;;;;;5034815;28;20193;-49
2023/03/13 06:08:57;;;;;;;2.37;1.13;;;15.30;63.80;;;;;;5041225;28;20189;-45
2023/03/13 06:11:23;;;;;;;1.37;0.90;;;15.30;63.70;;;;;;5041432;28;20243;-44
2023/03/13 06:13:51;;;;;;;1.60;0.87;;;15.50;63.20;;;;;;5040615;28;20193;-45
2023/03/13 06:16:17;;;;;;;1.27;1.00;;;15.40;63.00;;;;;;5047661;28;20232;-45
2023/03/13 06:18:43;;;;;;;1.73;0.87;;;15.50;62.90;;;;;;5045956;28;20512;-45
2023/03/13 06:21:08;;;;;;;1.60;0.90;;;15.50;62.50;;;;;;5047144;28;20227;-49
2023/03/13 06:23:35;;;;;;;1.97;1.00;;;15.70;62.10;;;;;;5044140;28;20590;-47
2023/03/13 06:26:00;;;;;;;0.80;0.80;;;15.70;61.70;;;;;;5044676;28;20201;-47
2023/03/13 06:28:26;;;;;;;1.10;0.67;;;15.80;61.80;;;;;;5034509;28;20541;-46
2023/03/13 06:30:51;;;;;;;1.13;0.80;;;15.70;61.30;;;;;;5048755;28;20196;-46
2023/03/13 06:33:17;;;;;;;2.50;0.87;;;15.80;61.40;;;;;;5044552;28;20188;-46
2023/03/13 06:35:43;;;;;;;1.13;0.80;;;15.80;61.10;;;;;;5048329;28;20208;-46
2023/03/13 06:38:09;;;;;;;4.40;1.00;;;15.80;61.40;;;;;;5048723;28;20281;-48
2023/03/13 06:40:35;;;;;;;3.60;0.93;;;15.90;60.90;;;;;;5044471;28;20438;-47
2023/03/13 06:43:01;;;;;;;2.23;0.80;;;15.90;60.90;;;;;;5042465;28;20436;-47
2023/03/13 06:45:27;;;;;;;1.13;0.97;;;15.90;61.00;;;;;;5050077;28;20538;-48
2023/03/13 06:47:52;;;;;;;1.47;1.07;;;16.00;61.00;;;;;;5053852;28;20280;-45
2023/03/13 06:50:18;;;;;;;0.80;0.80;;;15.90;60.90;;;;;;5046645;28;20720;-45
2023/03/13 06:52:45;;;;;;;2.80;1.00;;;16.00;61.30;;;;;;5051787;28;20275;-48
2023/03/13 06:55:11;;;;;;;1.37;1.00;;;16.00;61.20;;;;;;5048014;28;20286;-46
2023/03/13 06:57:37;;;;;;;1.67;1.03;;;15.80;61.60;;;;;;5045759;28;20979;-45
2023/03/13 07:00:05;;;;;;;0.90;0.80;;;15.90;61.80;;;;;;5052961;28;20442;-45
2023/03/13 07:02:31;;;;;;;0.90;0.90;;;16.00;61.60;;;;;;5052421;28;20204;-49
2023/03/13 07:04:56;;;;;;;3.33;1.10;;;16.00;61.40;;;;;;5040381;28;20439;-46
2023/03/13 07:07:22;;;;;;;1.33;0.80;;;15.90;61.90;;;;;;5047472;28;20455;-46
2023/03/13 07:09:47;;;;;;;0.77;0.77;;;15.70;61.80;;;;;;5051633;28;20199;-46
2023/03/13 07:12:13;;;;;;;1.13;1.00;;;16.00;62.40;;;;;;5050536;28;20266;-44
2023/03/13 07:14:38;;;;;;;0.80;0.80;;;16.00;61.60;;;;;;5044838;28;20332;-45
2023/03/13 07:17:04;;;;;;;1.73;1.47;;;16.10;61.60;;;;;;5043707;28;20236;-47
2023/03/13 07:19:30;;;;;;;1.20;1.10;;;15.90;62.10;;;;;;5039746;28;20193;-46
2023/03/13 07:21:55;;;;;;;1.20;1.10;;;15.70;62.60;;;;;;5052168;28;20227;-49
2023/03/13 07:24:21;;;;;;;1.00;0.70;;;15.90;62.80;;;;;;5044529;28;20243;-46
2023/03/13 07:26:47;;;;;;;1.63;1.10;;;15.90;62.40;;;;;;5043451;28;20239;-45
2023/03/13 07:29:12;;;;;;;3.33;1.23;;;15.90;62.70;;;;;;5034733;28;20193;-48
2023/03/13 07:31:38;;;;;;;1.20;0.70;;;16.00;62.70;;;;;;5048111;28;20190;-48
2023/03/13 07:34:04;;;;;;;1.33;0.80;;;16.00;62.50;;;;;;5040555;28;20227;-48
2023/03/13 07:36:30;;;;;;;0.93;0.93;;;16.10;62.60;;;;;;5046874;28;20282;-48
2023/03/13 07:38:55;;;;;;;2.83;1.10;;;16.00;62.50;;;;;;5049756;28;20197;-45
2023/03/13 07:41:21;;;;;;;0.73;0.73;;;16.10;62.80;;;;;;5046897;28;20192;-48
2023/03/13 07:43:47;;;;;;;0.80;0.70;;;16.20;62.70;;;;;;5052821;28;20254;-46
2023/03/13 07:46:20;;;;;;;1.37;0.83;;;16.30;62.50;;;;;;5038637;28;20455;-45
2023/03/13 07:48:46;;;;;;;0.80;0.70;;;16.20;62.60;;;;;;5045869;28;20455;-49
2023/03/13 07:51:21;;;;;;;1.10;0.80;;;16.20;62.50;;;;;;5044051;28;20492;-46
2023/03/13 07:53:47;;;;;;;0.97;0.83;;;16.50;62.10;;;;;;5043310;28;20478;-46
2023/03/13 07:56:15;;;;;;;1.90;0.90;;;16.60;61.70;;;;;;5039440;28;20589;-47
2023/03/13 07:58:42;;;;;;;1.50;0.90;;;16.70;61.60;;;;;;5047530;28;20219;-49
2023/03/13 08:01:15;;;;;;;1.50;1.20;;;16.90;60.50;;;;;;5041179;28;20450;-48
2023/03/13 08:03:40;;;;;;;1.33;1.00;;;16.90;60.40;;;;;;5044474;28;20447;-48
2023/03/13 08:06:12;;;;;;;1.10;0.90;;;16.80;60.10;;;;;;5040191;28;20450;-49
2023/03/13 08:08:38;;;;;;;1.80;1.20;;;16.70;61.80;;;;;;5037517;28;20233;-49
2023/03/13 08:11:11;;;;;;;1.17;1.07;;;16.80;61.00;;;;;;5035555;28;20479;-49
2023/03/13 08:13:38;;;;;;;1.97;1.67;;;17.10;60.50;;;;;;5045773;28;20528;-46
2023/03/13 08:16:08;;;;;;;1.10;1.00;;;17.30;59.80;;;;;;5040777;28;20585;-51
2023/03/13 08:18:35;;;;;;;5.70;1.10;;;17.30;59.50;;;;;;5042923;28;20633;-48
2023/03/13 08:21:09;;;;;;;1.07;0.80;;;17.30;59.60;;;;;;5040056;28;20431;-50
2023/03/13 08:23:35;;;;;;;0.80;0.80;;;17.20;59.50;;;;;;5043540;28;20439;-49
2023/03/13 08:26:13;;;;;;;1.00;0.87;;;17.10;59.90;;;;;;5049786;28;20950;-51
2023/03/13 08:28:39;;;;;;;1.73;0.87;;;16.90;60.40;;;;;;5048309;28;20438;-52
2023/03/13 08:31:16;;;;;;;1.00;1.00;;;16.80;60.40;;;;;;5042709;28;20451;-47
2023/03/13 08:33:43;;;;;;;1.43;1.00;;;16.90;60.60;;;;;;5036329;28;20877;-48
2023/03/13 08:36:19;;;;;;;1.20;0.97;;;17.00;60.40;;;;;;5045646;28;20467;-47
2023/03/13 08:38:46;;;;;;;1.53;1.00;;;16.90;60.60;;;;;;5042841;28;20446;-48
2023/03/13 08:41:14;;;;;;;2.03;0.93;;;16.80;60.70;;;;;;5040311;28;20546;-48
2023/03/13 08:43:40;;;;;;;1.37;1.27;;;16.80;60.60;;;;;;5044767;28;20490;-46
2023/03/13 08:46:05;;;;;;;1.10;0.73;;;17.00;60.80;;;;;;5046137;28;20459;-46
2023/03/13 08:48:31;;;;;;;2.43;1.40;;;16.90;60.30;;;;;;5038994;28;20276;-49
2023/03/13 08:51:03;;;;;;;1.23;0.90;;;16.90;60.50;;;;;;5034110;28;20200;-48
2023/03/13 08:53:30;;;;;;;1.80;1.60;;;17.00;60.70;;;;;;5037967;28;20242;-48
2023/03/13 08:55:55;;;;;;;2.00;1.30;;;16.90;60.20;;;;;;5041327;28;21013;-48
2023/03/13 08:58:21;;;;;;;0.80;0.80;;;17.00;60.50;;;;;;5043981;28;20443;-48
2023/03/13 09:00:47;;;;;;;1.30;1.20;;;17.30;60.10;;;;;;5032704;28;20251;-48
2023/03/13 09:03:12;;;;;;;2.00;1.40;;;17.20;59.30;;;;;;5039039;28;20225;-49
2023/03/13 09:05:38;;;;;;;1.13;0.93;;;17.10;59.30;;;;;;5038168;28;20265;-46
2023/03/13 09:08:03;;;;;;;2.37;1.00;;;17.10;59.60;;;;;;5041716;28;20658;-51
2023/03/13 09:10:32;;;;;;;1.20;1.10;;;17.40;59.50;;;;;;5043331;28;20193;-49
2023/03/13 09:12:57;;;;;;;1.73;1.47;;;17.40;59.00;;;;;;5032223;28;20664;-48
2023/03/13 09:15:23;;;;;;;2.50;1.77;;;17.50;59.40;;;;;;5041668;28;20457;-50
2023/03/13 09:17:49;;;;;;;3.50;0.93;;;17.60;58.80;;;;;;5034905;28;20232;-51
2023/03/13 09:20:14;;;;;;;1.17;1.07;;;17.60;58.20;;;;;;5039904;28;21143;-48
2023/03/13 09:22:40;;;;;;;1.53;1.07;;;17.70;58.10;;;;;;5032066;28;20267;-51
2023/03/13 09:25:06;;;;;;;1.33;1.23;;;17.70;57.70;;;;;;5041150;28;20221;-48
2023/03/13 09:27:31;;;;;;;1.47;1.37;;;17.50;57.50;;;;;;5039116;28;20207;-50
2023/03/13 09:29:57;;;;;;;1.30;0.97;;;17.60;57.80;;;;;;5034546;28;20448;-52
2023/03/13 09:32:23;;;;;;;1.80;1.20;;;17.70;57.80;;;;;;5036446;28;20271;-52
2023/03/13 09:34:49;;;;;;;5.70;1.40;;;17.50;57.80;;;;;;5032610;28;21402;-46
2023/03/13 09:37:15;;;;;;;1.50;1.23;;;17.60;57.80;;;;;;5043116;28;20536;-48
2023/03/13 09:39:40;;;;;;;3.07;1.40;;;17.60;57.70;;;;;;5039760;28;20239;-54
2023/03/13 09:42:31;;;;;;;2.50;1.13;;;17.70;57.20;;;;;;5043307;28;20667;-47
2023/03/13 09:45:11;;;;;;;1.87;1.10;;;17.90;57.50;;;;;;5038079;28;20256;-47
2023/03/13 09:47:49;;;;;;;2.00;1.30;;;17.70;57.10;;;;;;5037069;28;20447;-47
2023/03/13 09:50:21;;;;;;;1.73;1.23;;;17.60;57.30;;;;;;5035873;28;20541;-46
2023/03/13 09:52:52;;;;;;;4.83;1.17;;;17.60;57.40;;;;;;5033943;28;20459;-48
2023/03/13 09:55:25;;;;;;;2.30;1.23;;;17.50;58.00;;;;;;5039774;28;20994;-48
2023/03/13 09:57:55;;;;;;;1.37;1.20;;;17.60;58.20;;;;;;5034324;28;20524;-46
2023/03/13 10:00:28;;;;;;;1.40;1.23;;;18.10;57.50;;;;;;5032157;28;20442;-49
2023/03/13 10:03:21;;;;;;;1.27;0.97;;;18.20;56.80;;;;;;5037140;28;20451;-48
2023/03/13 10:05:58;;;;;;;2.30;1.33;;;18.50;56.30;;;;;;5044908;28;20490;-47
2023/03/13 10:08:30;;;;;;;2.90;1.40;;;18.80;55.90;;;;;;5034982;28;20525;-47
2023/03/13 10:11:29;;;;;;;2.40;1.13;;;18.70;55.30;;;;;;5034566;28;20477;-49
2023/03/13 10:14:22;;;;;;;4.87;1.30;;;19.00;55.30;;;;;;5040061;28;20470;-48
2023/03/13 10:17:00;;;;;;;1.80;0.90;;;18.90;55.20;;;;;;5044226;28;20489;-52
2023/03/13 10:19:31;;;;;;;3.67;1.67;;;18.90;54.40;;;;;;5038073;28;20478;-47
2023/03/13 10:22:00;;;;;;;2.10;1.27;;;19.10;54.10;;;;;;5034784;28;20535;-47
2023/03/13 10:24:31;;;;;;;1.90;1.40;;;19.00;54.10;;;;;;5036987;28;20444;-48
2023/03/13 10:26:57;;;;;;;1.43;1.33;;;19.00;53.60;;;;;;5032416;28;20927;-47
2023/03/13 10:29:25;;;;;;;1.77;1.30;;;19.10;53.20;;;;;;5040361;28;20664;-47
2023/03/13 10:32:02;;;;;;;1.57;1.20;;;19.20;52.80;;;;;;5036460;28;20535;-47
2023/03/13 10:34:45;;;;;;;1.77;1.20;;;19.60;52.50;;;;;;5033269;28;20527;-48
2023/03/13 10:37:15;;;;;;;1.67;1.57;;;20.00;51.90;;;;;;5044566;28;20486;-47
2023/03/13 10:39:41;;;;;;;3.03;1.20;;;20.40;51.30;;;;;;5044571;28;20490;-47
2023/03/13 10:42:20;;;;;;;1.90;1.60;;;20.80;50.70;;;;;;5037715;28;20818;-49
2023/03/13 10:44:46;;;;;;;2.93;1.63;;;21.00;49.90;;;;;;5048889;28;20595;-48
2023/03/13 10:47:13;;;;;;;2.60;2.40;;;20.80;48.90;;;;;;5049564;28;20460;-45
2023/03/13 10:49:51;;;;;;;2.00;1.80;;;20.60;49.50;;;;;;5043128;28;20430;-46
2023/03/13 10:52:44;;;;;;;3.43;1.53;;;20.50;49.50;;;;;;5041793;28;20452;-47
2023/03/13 10:55:12;;;;;;;1.90;1.67;;;20.60;49.40;;;;;;5027500;28;20521;-49
2023/03/13 10:57:40;;;;;;;1.63;1.30;;;20.50;49.50;;;;;;5047752;28;20548;-47
2023/03/13 11:00:42;;;;;;;1.43;1.30;;;20.30;49.70;;;;;;5038081;28;20804;-47
2023/03/13 11:03:30;;;;;;;1.97;1.77;;;20.30;49.60;;;;;;4958962;28;20546;-51
2023/03/13 11:06:00;;;;;;;3.67;1.67;;;20.20;49.60;;;;;;5032124;28;20814;-47
2023/03/13 11:08:28;;;;;;;1.67;1.33;;;20.20;49.90;;;;;;5045044;28;20600;-45
2023/03/13 11:11:02;;;;;;;3.47;1.57;;;20.40;49.90;;;;;;5047911;28;20434;-48
2023/03/13 11:13:42;;;;;;;1.63;1.40;;;20.60;49.40;;;;;;5050080;28;20588;-46
2023/03/13 11:16:28;;;;;;;4.43;1.73;;;21.00;49.50;;;;;;5046632;28;20482;-50
2023/03/13 11:19:12;;;;;;;2.93;1.80;;;21.10;48.70;;;;;;5040469;28;20463;-47
2023/03/13 11:22:12;;;;;;;1.80;1.33;;;21.10;48.80;;;;;;5048802;28;20531;-49
2023/03/13 11:24:50;;;;;;;2.57;1.70;;;21.00;48.70;;;;;;5038553;28;20843;-48
2023/03/13 11:27:22;;;;;;;3.27;1.67;;;21.00;48.50;;;;;;5048398;28;20456;-51
2023/03/13 11:30:10;;;;;;;3.60;1.40;;;21.00;48.70;;;;;;5037858;28;20486;-47
2023/03/13 11:32:55;;;;;;;4.87;2.00;;;21.00;48.40;;;;;;5035975;28;20451;-47
2023/03/13 11:35:47;;;;;;;2.30;1.93;;;21.20;48.60;;;;;;5040954;28;20542;-46
2023/03/13 11:38:41;;;;;;;1.93;1.43;;;21.20;48.40;;;;;;5043164;28;20825;-46
2023/03/13 11:41:28;;;;;;;2.17;1.50;;;21.30;48.20;;;;;;5047858;28;20448;-46
2023/03/13 11:44:22;;;;;;;2.50;1.90;;;21.00;48.20;;;;;;5038194;28;20522;-47
2023/03/13 11:46:59;;;;;;;1.70;1.57;;;21.20;48.70;;;;;;5037733;28;20526;-47
2023/03/13 11:49:49;;;;;;;1.70;1.50;;;21.50;48.20;;;;;;5043625;28;20465;-46
2023/03/13 11:52:45;;;;;;;1.50;1.40;;;21.80;47.60;;;;;;5032012;28;21164;-46
2023/03/13 11:55:40;;;;;;;2.67;1.33;;;21.90;47.10;;;;;;5039483;28;20487;-50
2023/03/13 11:58:15;;;;;;;1.50;1.40;;;22.20;47.20;;;;;;5036157;28;20455;-44
2023/03/13 12:00:49;;;;;;;1.40;1.30;;;22.30;46.40;;;;;;5043740;28;20446;-45
2023/03/13 12:03:24;;;;;;;1.10;1.10;;;22.30;45.90;;;;;;5038011;28;21174;-46
2023/03/13 12:05:56;;;;;;;2.63;1.87;;;22.20;45.90;;;;;;5043736;28;20457;-47
2023/03/13 12:08:44;;;;;;;1.93;1.67;;;22.30;46.10;;;;;;5044251;28;20598;-47
2023/03/13 12:11:31;;;;;;;1.90;1.30;;;22.30;46.30;;;;;;5038772;28;20443;-47
2023/03/13 12:14:04;;;;;;;3.00;1.67;;;22.60;45.80;;;;;;5047489;28;20461;-48
2023/03/13 12:16:54;;;;;;;2.00;1.70;;;22.70;45.60;;;;;;5042871;28;20483;-49
2023/03/13 12:19:47;;;;;;;1.10;1.00;;;23.00;45.30;;;;;;5042797;28;20451;-45
2023/03/13 12:22:50;;;;;;;1.50;1.40;;;23.20;44.80;;;;;;5039074;28;20443;-46
2023/03/13 12:25:27;;;;;;;1.30;1.20;;;23.40;45.00;;;;;;4982101;28;20449;-48
2023/03/13 12:28:03;;;;;;;2.20;1.43;;;23.50;44.20;;;;;;5025661;28;20468;-45
2023/03/13 12:30:55;;;;;;;1.70;1.27;;;23.20;44.10;;;;;;5044249;28;20446;-46
2023/03/13 12:33:50;;;;;;;2.90;1.23;;;23.20;44.70;;;;;;5045134;28;20922;-50
2023/03/13 12:36:22;;;;;;;1.30;1.20;;;23.40;44.00;;;;;;5008728;28;20494;-47
2023/03/13 12:38:54;;;;;;;1.20;1.10;;;23.70;44.10;;;;;;5040951;28;20474;-46
2023/03/13 12:41:42;;;;;;;1.93;1.20;;;23.90;43.20;;;;;;5032647;28;20448;-47
2023/03/13 12:44:15;;;;;;;1.50;1.10;;;23.80;42.90;;;;;;5030513;28;20488;-49
2023/03/13 12:47:00;;;;;;;1.87;1.33;;;23.80;42.50;;;;;;5040231;28;21282;-45
2023/03/13 12:49:40;;;;;;;2.57;1.47;;;24.00;43.20;;;;;;5049432;28;20458;-45
2023/03/13 12:52:40;;;;;;;1.23;1.10;;;24.00;43.00;;;;;;5038806;28;20455;-46
2023/03/13 12:55:44;;;;;;;1.00;1.00;;;24.30;42.80;;;;;;5044159;28;20459;-46
2023/03/13 12:58:30;;;;;;;2.30;1.23;;;24.30;41.60;;;;;;5038066;28;20451;-45
2023/03/13 13:01:02;;;;;;;2.53;1.27;;;24.60;41.80;;;;;;5049752;28;20450;-47